sensor_id;sensor_type;location;lat;lon;timestamp;pressure;altitude;pressure_sealevel;temperature;humidity
11444;BME280;5778;47.856;12.154;2022-10-31T00:00:41;96817.28;;;10.33;100.00
11444;BME280;5778;47.856;12.154;2022-10-31T00:03:09;96819.25;;;10.54;100.00
11444;BME280;5778;47.856;12.154;2022-10-31T00:05:40;96815.72;;;10.65;100.00
11444;BME280;5778;47.856;12.154;2022-10-31T00:08:09;96818.25;;;10.71;100.00
11444;BME280;5778;47.856;12.154;2022-10-31T00:13:04;96820.25;;;10.97;100.00
11444;BME280;5778;47.856;12.154;2022-10-31T00:15:32;96817.03;;;10.95;100.00
11444;BME280;5778;47.856;12.154;2022-10-31T00:17:59;96821.06;;;10.98;100.00
11444;BME280;5778;47.856;12.154;2022-10-31T00:20:26;96820.25;;;10.97;100.00
11444;BME280;5778;47.856;12.154;2022-10-31T00:22:57;96823.59;;;11.04;100.00
11444;BME280;5778;47.856;12.154;2022-10-31T00:25:27;96824.88;;;11.02;100.00
11444;BME280;5778;47.856;12.154;2022-10-31T00:27:54;96821.97;;;11.03;100.00
11444;BME280;5778;47.856;12.154;2022-10-31T00:30:21;96822.69;;;10.99;100.00
11444;BME280;5778;47.856;12.154;2022-10-31T00:32:50;96813.56;;;10.78;100.00
11444;BME280;5778;47.856;12.154;2022-10-31T00:35:17;96819.63;;;10.74;100.00
11444;BME280;5778;47.856;12.154;2022-10-31T00:37:44;96817.34;;;10.66;100.00
11444;BME280;5778;47.856;12.154;2022-10-31T00:40:11;96822.47;;;10.56;100.00
11444;BME280;5778;47.856;12.154;2022-10-31T00:42:40;96817.00;;;10.46;100.00
11444;BME280;5778;47.856;12.154;2022-10-31T00:45:09;96825.13;;;10.39;100.00
11444;BME280;5778;47.856;12.154;2022-10-31T00:47:37;96818.44;;;10.37;100.00
11444;BME280;5778;47.856;12.154;2022-10-31T00:50:05;96809.81;;;10.30;100.00
11444;BME280;5778;47.856;12.154;2022-10-31T00:52:33;96810.97;;;10.22;100.00
11444;BME280;5778;47.856;12.154;2022-10-31T00:55:03;96815.47;;;10.22;100.00
11444;BME280;5778;47.856;12.154;2022-10-31T00:57:30;96819.91;;;10.16;100.00
11444;BME280;5778;47.856;12.154;2022-10-31T00:59:59;96815.53;;;9.99;100.00
11444;BME280;5778;47.856;12.154;2022-10-31T01:02:27;96820.19;;;9.92;100.00
11444;BME280;5778;47.856;12.154;2022-10-31T01:04:55;96822.84;;;9.92;100.00
11444;BME280;5778;47.856;12.154;2022-10-31T01:07:22;96818.25;;;9.76;100.00
11444;BME280;5778;47.856;12.154;2022-10-31T01:09:49;96822.66;;;9.70;100.00
11444;BME280;5778;47.856;12.154;2022-10-31T01:12:16;96818.50;;;9.63;100.00
11444;BME280;5778;47.856;12.154;2022-10-31T01:14:44;96820.25;;;9.57;100.00
11444;BME280;5778;47.856;12.154;2022-10-31T01:17:13;96824.50;;;9.70;100.00
11444;BME280;5778;47.856;12.154;2022-10-31T01:19:40;96812.84;;;9.59;100.00
11444;BME280;5778;47.856;12.154;2022-10-31T01:22:07;96816.13;;;9.50;100.00
11444;BME280;5778;47.856;12.154;2022-10-31T01:24:35;96816.22;;;9.55;100.00
11444;BME280;5778;47.856;12.154;2022-10-31T01:27:02;96812.31;;;9.34;100.00
11444;BME280;5778;47.856;12.154;2022-10-31T01:29:33;96822.34;;;9.32;100.00
11444;BME280;5778;47.856;12.154;2022-10-31T01:32:00;96814.38;;;9.32;100.00
11444;BME280;5778;47.856;12.154;2022-10-31T01:34:29;96806.31;;;9.39;100.00
11444;BME280;5778;47.856;12.154;2022-10-31T01:36:56;96808.41;;;9.37;100.00
11444;BME280;5778;47.856;12.154;2022-10-31T01:39:23;96805.25;;;9.28;100.00
11444;BME280;5778;47.856;12.154;2022-10-31T01:41:52;96795.81;;;9.32;100.00
11444;BME280;5778;47.856;12.154;2022-10-31T01:44:50;96800.88;;;9.34;100.00
11444;BME280;5778;47.856;12.154;2022-10-31T01:47:24;96802.06;;;9.38;100.00
11444;BME280;5778;47.856;12.154;2022-10-31T01:50:06;96796.47;;;9.39;100.00
11444;BME280;5778;47.856;12.154;2022-10-31T01:52:38;96802.63;;;9.28;100.00
11444;BME280;5778;47.856;12.154;2022-10-31T01:55:09;96793.97;;;9.33;100.00
11444;BME280;5778;47.856;12.154;2022-10-31T01:57:40;96795.13;;;9.37;100.00
11444;BME280;5778;47.856;12.154;2022-10-31T02:00:10;96799.41;;;9.38;100.00
11444;BME280;5778;47.856;12.154;2022-10-31T02:02:45;96791.09;;;9.34;100.00
11444;BME280;5778;47.856;12.154;2022-10-31T02:05:18;96789.22;;;9.46;100.00
11444;BME280;5778;47.856;12.154;2022-10-31T02:07:49;96782.66;;;9.49;100.00
11444;BME280;5778;47.856;12.154;2022-10-31T02:10:19;96778.84;;;9.45;100.00
11444;BME280;5778;47.856;12.154;2022-10-31T02:12:48;96777.44;;;9.54;100.00
11444;BME280;5778;47.856;12.154;2022-10-31T02:15:17;96788.63;;;9.56;100.00
11444;BME280;5778;47.856;12.154;2022-10-31T02:17:45;96781.97;;;9.30;100.00
11444;BME280;5778;47.856;12.154;2022-10-31T02:20:17;96786.13;;;9.26;100.00
11444;BME280;5778;47.856;12.154;2022-10-31T02:23:06;96781.06;;;9.13;100.00
11444;BME280;5778;47.856;12.154;2022-10-31T02:25:51;96781.84;;;9.14;100.00
11444;BME280;5778;47.856;12.154;2022-10-31T02:28:34;96783.72;;;9.13;100.00
11444;BME280;5778;47.856;12.154;2022-10-31T02:31:26;96786.38;;;9.02;100.00
11444;BME280;5778;47.856;12.154;2022-10-31T02:34:01;96791.66;;;9.02;100.00
11444;BME280;5778;47.856;12.154;2022-10-31T02:36:39;96789.50;;;8.99;100.00
11444;BME280;5778;47.856;12.154;2022-10-31T02:39:12;96788.69;;;8.98;100.00
11444;BME280;5778;47.856;12.154;2022-10-31T02:41:48;96782.09;;;8.89;100.00
11444;BME280;5778;47.856;12.154;2022-10-31T02:44:22;96789.47;;;8.87;100.00
11444;BME280;5778;47.856;12.154;2022-10-31T02:46:59;96787.16;;;8.91;100.00
11444;BME280;5778;47.856;12.154;2022-10-31T02:49:31;96789.25;;;8.89;100.00
11444;BME280;5778;47.856;12.154;2022-10-31T02:51:59;96789.69;;;8.86;100.00
11444;BME280;5778;47.856;12.154;2022-10-31T02:54:28;96783.34;;;8.87;100.00
11444;BME280;5778;47.856;12.154;2022-10-31T02:56:57;96783.69;;;8.90;100.00
11444;BME280;5778;47.856;12.154;2022-10-31T02:59:28;96789.13;;;8.84;100.00
11444;BME280;5778;47.856;12.154;2022-10-31T03:02:09;96785.44;;;8.85;100.00
11444;BME280;5778;47.856;12.154;2022-10-31T03:07:51;96794.66;;;8.82;100.00
11444;BME280;5778;47.856;12.154;2022-10-31T03:10:31;96796.16;;;8.78;100.00
11444;BME280;5778;47.856;12.154;2022-10-31T03:13:05;96793.28;;;8.80;100.00
11444;BME280;5778;47.856;12.154;2022-10-31T03:15:37;96796.16;;;8.78;100.00
11444;BME280;5778;47.856;12.154;2022-10-31T03:18:09;96790.28;;;8.76;100.00
11444;BME280;5778;47.856;12.154;2022-10-31T03:20:41;96791.66;;;8.79;100.00
11444;BME280;5778;47.856;12.154;2022-10-31T03:23:14;96800.31;;;8.86;100.00
11444;BME280;5778;47.856;12.154;2022-10-31T03:25:46;96799.16;;;8.82;100.00
11444;BME280;5778;47.856;12.154;2022-10-31T03:28:17;96794.16;;;8.62;100.00
11444;BME280;5778;47.856;12.154;2022-10-31T03:30:46;96806.38;;;8.52;100.00
11444;BME280;5778;47.856;12.154;2022-10-31T03:33:21;96808.09;;;8.58;100.00
11444;BME280;5778;47.856;12.154;2022-10-31T03:35:50;96806.72;;;8.55;100.00
11444;BME280;5778;47.856;12.154;2022-10-31T03:38:21;96802.94;;;8.63;100.00
11444;BME280;5778;47.856;12.154;2022-10-31T03:40:51;96813.53;;;8.63;100.00
11444;BME280;5778;47.856;12.154;2022-10-31T03:43:21;96806.28;;;8.58;100.00
11444;BME280;5778;47.856;12.154;2022-10-31T03:45:51;96810.84;;;8.51;100.00
11444;BME280;5778;47.856;12.154;2022-10-31T03:48:20;96810.75;;;8.58;100.00
11444;BME280;5778;47.856;12.154;2022-10-31T03:50:57;96807.19;;;8.52;100.00
11444;BME280;5778;47.856;12.154;2022-10-31T03:53:32;96813.75;;;8.50;100.00
11444;BME280;5778;47.856;12.154;2022-10-31T03:56:06;96812.38;;;8.47;100.00
11444;BME280;5778;47.856;12.154;2022-10-31T03:58:39;96810.97;;;8.45;100.00
11444;BME280;5778;47.856;12.154;2022-10-31T04:01:14;96812.56;;;8.46;100.00
11444;BME280;5778;47.856;12.154;2022-10-31T04:03:44;96813.84;;;8.43;100.00
11444;BME280;5778;47.856;12.154;2022-10-31T04:06:13;96810.84;;;8.40;100.00
11444;BME280;5778;47.856;12.154;2022-10-31T04:08:46;96810.25;;;8.38;100.00
11444;BME280;5778;47.856;12.154;2022-10-31T04:11:19;96810.59;;;8.41;100.00
11444;BME280;5778;47.856;12.154;2022-10-31T04:14:06;96798.59;;;8.27;100.00
11444;BME280;5778;47.856;12.154;2022-10-31T04:16:37;96802.75;;;8.17;100.00
11444;BME280;5778;47.856;12.154;2022-10-31T04:19:06;96801.44;;;8.26;100.00
11444;BME280;5778;47.856;12.154;2022-10-31T04:21:33;96801.16;;;8.16;100.00
11444;BME280;5778;47.856;12.154;2022-10-31T04:24:00;96804.25;;;8.13;100.00
11444;BME280;5778;47.856;12.154;2022-10-31T04:26:29;96797.41;;;8.23;100.00
11444;BME280;5778;47.856;12.154;2022-10-31T04:28:57;96806.88;;;8.31;100.00
11444;BME280;5778;47.856;12.154;2022-10-31T04:31:26;96806.31;;;8.29;100.00
11444;BME280;5778;47.856;12.154;2022-10-31T04:33:53;96805.56;;;8.22;100.00
11444;BME280;5778;47.856;12.154;2022-10-31T04:36:24;96805.06;;;8.31;100.00
11444;BME280;5778;47.856;12.154;2022-10-31T04:38:52;96807.00;;;8.36;100.00
11444;BME280;5778;47.856;12.154;2022-10-31T04:41:37;96803.53;;;8.24;100.00
11444;BME280;5778;47.856;12.154;2022-10-31T04:44:12;96806.91;;;8.13;100.00
11444;BME280;5778;47.856;12.154;2022-10-31T04:46:39;96807.34;;;8.10;100.00
11444;BME280;5778;47.856;12.154;2022-10-31T04:49:08;96809.09;;;8.16;100.00
11444;BME280;5778;47.856;12.154;2022-10-31T04:51:38;96800.88;;;8.06;100.00
11444;BME280;5778;47.856;12.154;2022-10-31T04:54:07;96801.78;;;8.00;100.00
11444;BME280;5778;47.856;12.154;2022-10-31T04:56:55;96802.38;;;8.02;100.00
11444;BME280;5778;47.856;12.154;2022-10-31T04:59:22;96805.59;;;8.04;100.00
11444;BME280;5778;47.856;12.154;2022-10-31T05:01:54;96805.47;;;7.99;100.00
11444;BME280;5778;47.856;12.154;2022-10-31T05:04:38;96805.03;;;8.02;100.00
11444;BME280;5778;47.856;12.154;2022-10-31T05:07:06;96802.50;;;8.07;100.00
11444;BME280;5778;47.856;12.154;2022-10-31T05:09:33;96799.13;;;8.00;100.00
11444;BME280;5778;47.856;12.154;2022-10-31T05:12:26;96802.94;;;8.04;100.00
11444;BME280;5778;47.856;12.154;2022-10-31T05:15:06;96805.94;;;8.07;100.00
11444;BME280;5778;47.856;12.154;2022-10-31T05:18:05;96807.81;;;8.07;100.00
11444;BME280;5778;47.856;12.154;2022-10-31T05:21:02;96807.97;;;7.94;100.00
11444;BME280;5778;47.856;12.154;2022-10-31T05:23:39;96802.88;;;7.92;100.00
11444;BME280;5778;47.856;12.154;2022-10-31T05:26:20;96803.34;;;7.89;100.00
11444;BME280;5778;47.856;12.154;2022-10-31T05:28:47;96807.59;;;7.90;100.00
11444;BME280;5778;47.856;12.154;2022-10-31T05:35:04;96812.38;;;8.00;100.00
11444;BME280;5778;47.856;12.154;2022-10-31T05:37:53;96807.34;;;8.10;100.00
11444;BME280;5778;47.856;12.154;2022-10-31T05:40:22;96802.88;;;8.10;100.00
11444;BME280;5778;47.856;12.154;2022-10-31T05:43:04;96806.19;;;8.24;100.00
11444;BME280;5778;47.856;12.154;2022-10-31T05:45:31;96802.66;;;8.12;100.00
11444;BME280;5778;47.856;12.154;2022-10-31T05:48:02;96798.75;;;8.14;100.00
11444;BME280;5778;47.856;12.154;2022-10-31T05:51:09;96805.06;;;8.13;100.00
11444;BME280;5778;47.856;12.154;2022-10-31T05:53:36;96795.47;;;8.01;100.00
11444;BME280;5778;47.856;12.154;2022-10-31T05:59:30;96805.94;;;7.78;100.00
11444;BME280;5778;47.856;12.154;2022-10-31T06:02:10;96805.34;;;7.76;100.00
11444;BME280;5778;47.856;12.154;2022-10-31T06:05:06;96807.84;;;7.71;100.00
11444;BME280;5778;47.856;12.154;2022-10-31T06:07:34;96811.81;;;7.80;100.00
11444;BME280;5778;47.856;12.154;2022-10-31T06:10:05;96814.00;;;7.83;100.00
11444;BME280;5778;47.856;12.154;2022-10-31T06:12:42;96811.66;;;7.93;100.00
11444;BME280;5778;47.856;12.154;2022-10-31T06:15:16;96815.69;;;7.95;100.00
11444;BME280;5778;47.856;12.154;2022-10-31T06:17:44;96808.28;;;7.86;100.00
11444;BME280;5778;47.856;12.154;2022-10-31T06:20:34;96811.50;;;7.88;100.00
11444;BME280;5778;47.856;12.154;2022-10-31T06:23:34;96819.66;;;7.86;100.00
11444;BME280;5778;47.856;12.154;2022-10-31T06:26:24;96815.88;;;7.82;100.00
11444;BME280;5778;47.856;12.154;2022-10-31T06:28:52;96814.63;;;7.85;100.00
11444;BME280;5778;47.856;12.154;2022-10-31T06:32:01;96815.34;;;7.92;100.00
11444;BME280;5778;47.856;12.154;2022-10-31T06:34:31;96812.81;;;7.97;100.00
11444;BME280;5778;47.856;12.154;2022-10-31T06:36:58;96817.38;;;8.08;100.00
11444;BME280;5778;47.856;12.154;2022-10-31T06:39:27;96812.72;;;8.21;100.00
11444;BME280;5778;47.856;12.154;2022-10-31T06:45:42;96817.47;;;8.72;100.00
11444;BME280;5778;47.856;12.154;2022-10-31T06:48:13;96820.34;;;8.82;100.00
11444;BME280;5778;47.856;12.154;2022-10-31T06:54:06;96819.34;;;9.06;100.00
11444;BME280;5778;47.856;12.154;2022-10-31T06:56:33;96829.97;;;9.29;100.00
11444;BME280;5778;47.856;12.154;2022-10-31T06:59:01;96825.47;;;9.18;100.00
11444;BME280;5778;47.856;12.154;2022-10-31T07:02:15;96826.16;;;9.25;100.00
11444;BME280;5778;47.856;12.154;2022-10-31T07:04:44;96819.09;;;9.42;100.00
11444;BME280;5778;47.856;12.154;2022-10-31T07:07:13;96822.31;;;9.55;100.00
11444;BME280;5778;47.856;12.154;2022-10-31T07:09:40;96820.13;;;9.64;100.00
11444;BME280;5778;47.856;12.154;2022-10-31T07:15:19;96823.50;;;9.99;100.00
11444;BME280;5778;47.856;12.154;2022-10-31T07:17:46;96821.75;;;10.16;100.00
11444;BME280;5778;47.856;12.154;2022-10-31T07:20:16;96821.66;;;10.39;100.00
11444;BME280;5778;47.856;12.154;2022-10-31T07:22:46;96820.66;;;10.73;100.00
11444;BME280;5778;47.856;12.154;2022-10-31T07:31:28;96819.78;;;11.17;100.00
11444;BME280;5778;47.856;12.154;2022-10-31T07:34:02;96819.13;;;11.26;100.00
11444;BME280;5778;47.856;12.154;2022-10-31T07:36:50;96820.38;;;11.57;100.00
11444;BME280;5778;47.856;12.154;2022-10-31T07:39:18;96821.16;;;11.74;100.00
11444;BME280;5778;47.856;12.154;2022-10-31T07:41:47;96817.56;;;11.85;100.00
11444;BME280;5778;47.856;12.154;2022-10-31T07:44:17;96817.00;;;12.04;100.00
11444;BME280;5778;47.856;12.154;2022-10-31T07:47:03;96808.19;;;12.25;100.00
11444;BME280;5778;47.856;12.154;2022-10-31T07:49:59;96807.72;;;12.33;100.00
11444;BME280;5778;47.856;12.154;2022-10-31T07:52:57;96809.72;;;12.43;100.00
11444;BME280;5778;47.856;12.154;2022-10-31T07:56:19;96803.66;;;12.52;100.00
11444;BME280;5778;47.856;12.154;2022-10-31T07:58:46;96807.28;;;12.68;100.00
11444;BME280;5778;47.856;12.154;2022-10-31T08:01:13;96803.16;;;12.82;100.00
11444;BME280;5778;47.856;12.154;2022-10-31T08:03:48;96798.50;;;12.99;100.00
11444;BME280;5778;47.856;12.154;2022-10-31T08:06:34;96792.97;;;13.05;100.00
11444;BME280;5778;47.856;12.154;2022-10-31T08:09:20;96793.69;;;13.32;100.00
11444;BME280;5778;47.856;12.154;2022-10-31T08:12:00;96784.72;;;13.53;100.00
11444;BME280;5778;47.856;12.154;2022-10-31T08:14:29;96786.72;;;13.73;100.00
11444;BME280;5778;47.856;12.154;2022-10-31T08:16:56;96787.81;;;13.82;100.00
11444;BME280;5778;47.856;12.154;2022-10-31T08:19:30;96782.50;;;13.92;100.00
11444;BME280;5778;47.856;12.154;2022-10-31T08:22:24;96776.66;;;14.05;100.00
11444;BME280;5778;47.856;12.154;2022-10-31T08:24:58;96773.75;;;14.16;100.00
11444;BME280;5778;47.856;12.154;2022-10-31T08:27:26;96776.25;;;14.43;100.00
11444;BME280;5778;47.856;12.154;2022-10-31T08:29:55;96778.44;;;14.56;100.00
11444;BME280;5778;47.856;12.154;2022-10-31T08:32:23;96766.66;;;14.62;100.00
11444;BME280;5778;47.856;12.154;2022-10-31T08:34:56;96764.81;;;14.87;100.00
11444;BME280;5778;47.856;12.154;2022-10-31T08:37:42;96765.06;;;15.01;100.00
11444;BME280;5778;47.856;12.154;2022-10-31T08:40:12;96762.91;;;15.18;100.00
11444;BME280;5778;47.856;12.154;2022-10-31T08:42:40;96761.56;;;15.25;100.00
11444;BME280;5778;47.856;12.154;2022-10-31T08:45:07;96765.56;;;15.28;100.00
11444;BME280;5778;47.856;12.154;2022-10-31T08:47:35;96753.28;;;15.42;100.00
11444;BME280;5778;47.856;12.154;2022-10-31T08:50:04;96754.56;;;15.54;100.00
11444;BME280;5778;47.856;12.154;2022-10-31T08:53:03;96755.63;;;15.53;100.00
11444;BME280;5778;47.856;12.154;2022-10-31T08:59:19;96742.38;;;15.87;100.00
11444;BME280;5778;47.856;12.154;2022-10-31T09:02:19;96735.38;;;15.96;100.00
11444;BME280;5778;47.856;12.154;2022-10-31T09:04:48;96738.22;;;16.14;100.00
11444;BME280;5778;47.856;12.154;2022-10-31T09:07:16;96733.13;;;16.18;100.00
11444;BME280;5778;47.856;12.154;2022-10-31T09:09:43;96734.06;;;16.37;100.00
11444;BME280;5778;47.856;12.154;2022-10-31T09:12:11;96726.50;;;16.00;100.00
11444;BME280;5778;47.856;12.154;2022-10-31T09:14:58;96728.81;;;16.17;100.00
11444;BME280;5778;47.856;12.154;2022-10-31T09:17:52;96725.50;;;16.40;100.00
11444;BME280;5778;47.856;12.154;2022-10-31T09:20:41;96723.94;;;16.67;100.00
11444;BME280;5778;47.856;12.154;2022-10-31T09:23:10;96717.69;;;16.77;100.00
11444;BME280;5778;47.856;12.154;2022-10-31T09:25:38;96716.00;;;16.86;100.00
11444;BME280;5778;47.856;12.154;2022-10-31T09:28:24;96708.28;;;17.08;100.00
11444;BME280;5778;47.856;12.154;2022-10-31T09:30:55;96711.75;;;17.13;100.00
11444;BME280;5778;47.856;12.154;2022-10-31T09:33:54;96712.63;;;17.32;100.00
11444;BME280;5778;47.856;12.154;2022-10-31T09:36:37;96706.34;;;17.42;100.00
11444;BME280;5778;47.856;12.154;2022-10-31T09:39:13;96693.41;;;17.20;100.00
11444;BME280;5778;47.856;12.154;2022-10-31T09:42:02;96706.53;;;17.74;100.00
11444;BME280;5778;47.856;12.154;2022-10-31T09:44:39;96695.47;;;17.99;100.00
11444;BME280;5778;47.856;12.154;2022-10-31T09:47:31;96695.94;;;17.82;100.00
11444;BME280;5778;47.856;12.154;2022-10-31T09:50:25;96702.81;;;17.70;100.00
11444;BME280;5778;47.856;12.154;2022-10-31T09:52:58;96687.50;;;17.89;100.00
11444;BME280;5778;47.856;12.154;2022-10-31T09:55:31;96693.88;;;17.74;100.00
11444;BME280;5778;47.856;12.154;2022-10-31T09:58:02;96683.53;;;17.39;100.00
11444;BME280;5778;47.856;12.154;2022-10-31T10:00:30;96681.16;;;17.33;100.00
11444;BME280;5778;47.856;12.154;2022-10-31T10:03:10;96680.81;;;17.86;100.00
11444;BME280;5778;47.856;12.154;2022-10-31T10:05:48;96674.53;;;18.33;100.00
11444;BME280;5778;47.856;12.154;2022-10-31T10:08:31;96667.94;;;18.76;100.00
11444;BME280;5778;47.856;12.154;2022-10-31T10:11:36;96670.91;;;18.74;100.00
11444;BME280;5778;47.856;12.154;2022-10-31T10:14:36;96669.72;;;18.48;100.00
11444;BME280;5778;47.856;12.154;2022-10-31T10:17:17;96659.44;;;19.01;100.00
11444;BME280;5778;47.856;12.154;2022-10-31T10:20:18;96660.44;;;19.18;100.00
11444;BME280;5778;47.856;12.154;2022-10-31T10:22:54;96663.88;;;19.24;100.00
11444;BME280;5778;47.856;12.154;2022-10-31T10:25:26;96659.69;;;19.72;100.00
11444;BME280;5778;47.856;12.154;2022-10-31T10:28:03;96661.09;;;19.83;100.00
11444;BME280;5778;47.856;12.154;2022-10-31T10:30:38;96650.28;;;20.10;100.00
11444;BME280;5778;47.856;12.154;2022-10-31T10:33:10;96648.41;;;20.19;100.00
11444;BME280;5778;47.856;12.154;2022-10-31T10:35:43;96649.53;;;20.18;100.00
11444;BME280;5778;47.856;12.154;2022-10-31T10:38:15;96641.69;;;20.30;100.00
11444;BME280;5778;47.856;12.154;2022-10-31T10:40:43;96640.34;;;20.63;100.00
11444;BME280;5778;47.856;12.154;2022-10-31T10:43:21;96627.34;;;20.43;100.00
11444;BME280;5778;47.856;12.154;2022-10-31T10:45:53;96632.44;;;19.95;100.00
11444;BME280;5778;47.856;12.154;2022-10-31T10:48:43;96630.59;;;19.69;100.00
11444;BME280;5778;47.856;12.154;2022-10-31T10:51:20;96630.53;;;19.33;100.00
11444;BME280;5778;47.856;12.154;2022-10-31T10:53:57;96624.50;;;19.09;100.00
11444;BME280;5778;47.856;12.154;2022-10-31T10:56:39;96629.56;;;19.11;100.00
11444;BME280;5778;47.856;12.154;2022-10-31T10:59:11;96622.13;;;19.35;100.00
11444;BME280;5778;47.856;12.154;2022-10-31T11:01:40;96623.63;;;19.27;100.00
11444;BME280;5778;47.856;12.154;2022-10-31T11:04:24;96623.00;;;19.57;100.00
11444;BME280;5778;47.856;12.154;2022-10-31T11:07:03;96607.72;;;19.53;100.00
11444;BME280;5778;47.856;12.154;2022-10-31T11:09:30;96608.84;;;19.52;100.00
11444;BME280;5778;47.856;12.154;2022-10-31T11:11:58;96604.09;;;19.71;100.00
11444;BME280;5778;47.856;12.154;2022-10-31T11:14:26;96602.34;;;19.53;100.00
11444;BME280;5778;47.856;12.154;2022-10-31T11:16:55;96594.44;;;19.56;100.00
11444;BME280;5778;47.856;12.154;2022-10-31T11:19:33;96594.03;;;19.63;100.00
11444;BME280;5778;47.856;12.154;2022-10-31T11:22:07;96593.22;;;19.62;100.00
11444;BME280;5778;47.856;12.154;2022-10-31T11:24:40;96591.75;;;19.43;100.00
11444;BME280;5778;47.856;12.154;2022-10-31T11:27:16;96585.03;;;19.00;100.00
11444;BME280;5778;47.856;12.154;2022-10-31T11:29:43;96584.13;;;18.77;100.00
11444;BME280;5778;47.856;12.154;2022-10-31T11:32:19;96581.97;;;18.61;100.00
11444;BME280;5778;47.856;12.154;2022-10-31T11:34:49;96585.28;;;18.58;100.00
11444;BME280;5778;47.856;12.154;2022-10-31T11:37:21;96577.19;;;18.58;100.00
11444;BME280;5778;47.856;12.154;2022-10-31T11:39:52;96575.09;;;18.68;100.00
11444;BME280;5778;47.856;12.154;2022-10-31T11:42:22;96578.75;;;18.91;100.00
11444;BME280;5778;47.856;12.154;2022-10-31T11:44:51;96566.59;;;19.07;100.00
11444;BME280;5778;47.856;12.154;2022-10-31T11:47:23;96567.47;;;19.02;100.00
11444;BME280;5778;47.856;12.154;2022-10-31T11:49:52;96566.34;;;18.90;100.00
11444;BME280;5778;47.856;12.154;2022-10-31T11:52:23;96568.47;;;18.93;100.00
11444;BME280;5778;47.856;12.154;2022-10-31T11:54:53;96560.56;;;18.96;100.00
11444;BME280;5778;47.856;12.154;2022-10-31T11:57:26;96556.88;;;18.92;100.00
11444;BME280;5778;47.856;12.154;2022-10-31T11:59:56;96552.16;;;18.71;100.00
11444;BME280;5778;47.856;12.154;2022-10-31T12:02:23;96550.88;;;18.82;100.00
11444;BME280;5778;47.856;12.154;2022-10-31T12:04:56;96545.59;;;18.77;100.00
11444;BME280;5778;47.856;12.154;2022-10-31T12:07:26;96536.59;;;18.68;100.00
11444;BME280;5778;47.856;12.154;2022-10-31T12:09:52;96543.59;;;18.82;100.00
11444;BME280;5778;47.856;12.154;2022-10-31T12:12:39;96539.81;;;18.83;100.00
11444;BME280;5778;47.856;12.154;2022-10-31T12:15:39;96547.47;;;18.90;100.00
11444;BME280;5778;47.856;12.154;2022-10-31T12:18:25;96538.78;;;18.66;100.00
11444;BME280;5778;47.856;12.154;2022-10-31T12:21:05;96535.00;;;18.80;100.00
11444;BME280;5778;47.856;12.154;2022-10-31T12:23:47;96529.41;;;18.77;100.00
11444;BME280;5778;47.856;12.154;2022-10-31T12:26:19;96532.41;;;18.89;100.00
11444;BME280;5778;47.856;12.154;2022-10-31T12:28:58;96525.63;;;18.78;100.00
11444;BME280;5778;47.856;12.154;2022-10-31T12:31:45;96520.66;;;18.98;100.00
11444;BME280;5778;47.856;12.154;2022-10-31T12:37:39;96527.03;;;19.16;100.00
11444;BME280;5778;47.856;12.154;2022-10-31T12:40:26;96530.53;;;18.89;100.00
11444;BME280;5778;47.856;12.154;2022-10-31T12:43:06;96521.44;;;18.85;100.00
11444;BME280;5778;47.856;12.154;2022-10-31T12:45:48;96517.72;;;18.81;100.00
11444;BME280;5778;47.856;12.154;2022-10-31T12:48:27;96520.53;;;18.90;100.00
11444;BME280;5778;47.856;12.154;2022-10-31T12:51:05;96523.53;;;18.88;100.00
11444;BME280;5778;47.856;12.154;2022-10-31T12:53:47;96513.75;;;18.79;100.00
11444;BME280;5778;47.856;12.154;2022-10-31T12:56:28;96510.28;;;18.92;100.00
11444;BME280;5778;47.856;12.154;2022-10-31T12:59:02;96509.88;;;18.71;100.00
11444;BME280;5778;47.856;12.154;2022-10-31T13:01:35;96510.28;;;18.92;100.00
11444;BME280;5778;47.856;12.154;2022-10-31T13:04:10;96507.28;;;18.66;100.00
11444;BME280;5778;47.856;12.154;2022-10-31T13:06:42;96500.56;;;18.50;100.00
11444;BME280;5778;47.856;12.154;2022-10-31T13:09:11;96498.88;;;18.68;100.00
11444;BME280;5778;47.856;12.154;2022-10-31T13:11:44;96489.28;;;18.89;100.00
11444;BME280;5778;47.856;12.154;2022-10-31T13:14:20;96496.28;;;18.90;100.00
11444;BME280;5778;47.856;12.154;2022-10-31T13:16:50;96489.38;;;18.84;100.00
11444;BME280;5778;47.856;12.154;2022-10-31T13:19:21;96493.81;;;18.80;100.00
11444;BME280;5778;47.856;12.154;2022-10-31T13:21:57;96493.28;;;18.64;100.00
11444;BME280;5778;47.856;12.154;2022-10-31T13:24:31;96492.09;;;18.70;100.00
11444;BME280;5778;47.856;12.154;2022-10-31T13:27:03;96489.09;;;18.72;100.00
11444;BME280;5778;47.856;12.154;2022-10-31T13:29:39;96488.53;;;18.88;100.00
11444;BME280;5778;47.856;12.154;2022-10-31T13:32:10;96482.81;;;18.63;100.00
11444;BME280;5778;47.856;12.154;2022-10-31T13:34:39;96475.63;;;18.72;100.00
11444;BME280;5778;47.856;12.154;2022-10-31T13:37:14;96481.53;;;18.74;100.00
11444;BME280;5778;47.856;12.154;2022-10-31T13:39:50;96477.13;;;18.78;100.00
11444;BME280;5778;47.856;12.154;2022-10-31T13:42:35;96475.34;;;18.87;100.00
11444;BME280;5778;47.856;12.154;2022-10-31T13:45:11;96476.63;;;19.03;100.00
11444;BME280;5778;47.856;12.154;2022-10-31T13:47:40;96472.44;;;19.24;100.00
11444;BME280;5778;47.856;12.154;2022-10-31T13:50:20;96469.34;;;19.52;100.00
11444;BME280;5778;47.856;12.154;2022-10-31T13:52:47;96471.03;;;19.62;100.00
11444;BME280;5778;47.856;12.154;2022-10-31T13:55:36;96462.50;;;19.90;100.00
11444;BME280;5778;47.856;12.154;2022-10-31T13:58:20;96471.41;;;19.91;100.00
11444;BME280;5778;47.856;12.154;2022-10-31T14:00:58;96454.56;;;20.07;100.00
11444;BME280;5778;47.856;12.154;2022-10-31T14:03:25;96458.19;;;20.33;100.00
11444;BME280;5778;47.856;12.154;2022-10-31T14:05:54;96458.44;;;20.84;100.00
11444;BME280;5778;47.856;12.154;2022-10-31T14:08:23;96452.34;;;20.79;100.00
11444;BME280;5778;47.856;12.154;2022-10-31T14:10:52;96450.91;;;21.29;100.00